sensor_id;sensor_type;location;lat;lon;timestamp;pressure;altitude;pressure_sealevel;temperature;humidity
69257;BME280;56376;53.356;-1.748;2023-08-07T00:01:25;99852.00;;;12.63;100.00
69257;BME280;56376;53.356;-1.748;2023-08-07T00:03:50;99846.78;;;12.63;100.00
69257;BME280;56376;53.356;-1.748;2023-08-07T00:06:15;99851.22;;;12.61;100.00
69257;BME280;56376;53.356;-1.748;2023-08-07T00:08:41;99851.22;;;12.61;100.00
69257;BME280;56376;53.356;-1.748;2023-08-07T00:11:10;99851.38;;;12.56;100.00
69257;BME280;56376;53.356;-1.748;2023-08-07T00:13:35;99845.34;;;12.54;100.00
69257;BME280;56376;53.356;-1.748;2023-08-07T00:16:01;99849.75;;;12.53;100.00
69257;BME280;56376;53.356;-1.748;2023-08-07T00:18:27;99844.50;;;12.53;100.00
69257;BME280;56376;53.356;-1.748;2023-08-07T00:20:53;99842.81;;;12.52;100.00
69257;BME280;56376;53.356;-1.748;2023-08-07T00:23:18;99831.41;;;12.53;100.00
69257;BME280;56376;53.356;-1.748;2023-08-07T00:25:44;99833.97;;;12.55;100.00
69257;BME280;56376;53.356;-1.748;2023-08-07T00:28:09;99835.53;;;12.59;100.00
69257;BME280;56376;53.356;-1.748;2023-08-07T00:30:34;99842.38;;;12.63;100.00
69257;BME280;56376;53.356;-1.748;2023-08-07T00:33:00;99839.75;;;12.63;100.00
69257;BME280;56376;53.356;-1.748;2023-08-07T00:35:25;99834.34;;;12.68;100.00
69257;BME280;56376;53.356;-1.748;2023-08-07T00:37:50;99826.47;;;12.68;100.00
69257;BME280;56376;53.356;-1.748;2023-08-07T00:40:17;99820.19;;;12.72;100.00
69257;BME280;56376;53.356;-1.748;2023-08-07T00:42:42;99821.91;;;12.73;100.00
69257;BME280;56376;53.356;-1.748;2023-08-07T00:45:08;99830.66;;;12.72;100.00
69257;BME280;56376;53.356;-1.748;2023-08-07T00:47:33;99830.75;;;12.70;100.00
69257;BME280;56376;53.356;-1.748;2023-08-07T00:49:59;99825.56;;;12.69;100.00
69257;BME280;56376;53.356;-1.748;2023-08-07T00:52:25;99824.53;;;12.73;100.00
69257;BME280;56376;53.356;-1.748;2023-08-07T00:54:50;99829.63;;;12.76;100.00
69257;BME280;56376;53.356;-1.748;2023-08-07T00:57:16;99821.91;;;12.73;100.00
69257;BME280;56376;53.356;-1.748;2023-08-07T00:59:42;99820.19;;;12.72;100.00
69257;BME280;56376;53.356;-1.748;2023-08-07T01:02:12;99810.63;;;12.71;100.00
69257;BME280;56376;53.356;-1.748;2023-08-07T01:04:38;99814.88;;;12.73;100.00
69257;BME280;56376;53.356;-1.748;2023-08-07T01:07:04;99817.44;;;12.75;100.00
69257;BME280;56376;53.356;-1.748;2023-08-07T01:09:30;99800.97;;;12.71;100.00
69257;BME280;56376;53.356;-1.748;2023-08-07T01:11:57;99805.19;;;12.75;100.00
69257;BME280;56376;53.356;-1.748;2023-08-07T01:14:53;99802.50;;;12.77;100.00
69257;BME280;56376;53.356;-1.748;2023-08-07T01:17:22;99802.50;;;12.77;100.00
69257;BME280;56376;53.356;-1.748;2023-08-07T01:19:51;99799.03;;;12.76;100.00
69257;BME280;56376;53.356;-1.748;2023-08-07T01:22:18;99806.94;;;12.75;100.00
69257;BME280;56376;53.356;-1.748;2023-08-07T01:24:51;99795.44;;;12.79;100.00
69257;BME280;56376;53.356;-1.748;2023-08-07T01:35:29;99786.84;;;12.75;100.00
69257;BME280;56376;53.356;-1.748;2023-08-07T01:37:56;99792.16;;;12.74;100.00
69257;BME280;56376;53.356;-1.748;2023-08-07T01:40:22;99793.00;;;12.74;100.00
69257;BME280;56376;53.356;-1.748;2023-08-07T01:42:48;99790.44;;;12.73;100.00
69257;BME280;56376;53.356;-1.748;2023-08-07T01:45:14;99793.91;;;12.73;100.00
69257;BME280;56376;53.356;-1.748;2023-08-07T01:47:46;99798.50;;;12.68;100.00
69257;BME280;56376;53.356;-1.748;2023-08-07T01:50:12;99806.41;;;12.67;100.00
69257;BME280;56376;53.356;-1.748;2023-08-07T01:52:37;99796.97;;;12.63;100.00
69257;BME280;56376;53.356;-1.748;2023-08-07T01:55:03;99799.59;;;12.63;100.00
69257;BME280;56376;53.356;-1.748;2023-08-07T01:57:28;99803.13;;;12.62;100.00
69257;BME280;56376;53.356;-1.748;2023-08-07T01:59:54;99799.91;;;12.55;100.00
69257;BME280;56376;53.356;-1.748;2023-08-07T02:02:19;99802.44;;;12.56;100.00
69257;BME280;56376;53.356;-1.748;2023-08-07T02:04:45;99806.91;;;12.54;100.00
69257;BME280;56376;53.356;-1.748;2023-08-07T02:07:10;99806.06;;;12.54;100.00
69257;BME280;56376;53.356;-1.748;2023-08-07T02:09:36;99799.13;;;12.53;100.00
69257;BME280;56376;53.356;-1.748;2023-08-07T02:12:01;99803.56;;;12.51;100.00
69257;BME280;56376;53.356;-1.748;2023-08-07T02:14:26;99807.03;;;12.51;100.00
69257;BME280;56376;53.356;-1.748;2023-08-07T02:16:52;99807.81;;;12.53;100.00
69257;BME280;56376;53.356;-1.748;2023-08-07T02:19:17;99800.00;;;12.52;100.00
69257;BME280;56376;53.356;-1.748;2023-08-07T02:21:42;99799.97;;;12.53;100.00
69257;BME280;56376;53.356;-1.748;2023-08-07T02:24:08;99805.16;;;12.55;100.00
69257;BME280;56376;53.356;-1.748;2023-08-07T02:26:33;99806.06;;;12.54;100.00
69257;BME280;56376;53.356;-1.748;2023-08-07T02:28:59;99802.44;;;12.56;100.00
69257;BME280;56376;53.356;-1.748;2023-08-07T02:31:24;99802.63;;;12.52;100.00
69257;BME280;56376;53.356;-1.748;2023-08-07T02:33:50;99808.13;;;12.46;100.00
69257;BME280;56376;53.356;-1.748;2023-08-07T02:36:15;99815.06;;;12.47;100.00
69257;BME280;56376;53.356;-1.748;2023-08-07T02:38:40;99813.50;;;12.43;100.00
69257;BME280;56376;53.356;-1.748;2023-08-07T02:41:06;99814.34;;;12.43;100.00
69257;BME280;56376;53.356;-1.748;2023-08-07T02:43:31;99817.00;;;12.42;100.00
69257;BME280;56376;53.356;-1.748;2023-08-07T02:45:58;99816.22;;;12.40;100.00
69257;BME280;56376;53.356;-1.748;2023-08-07T02:48:24;99811.09;;;12.37;100.00
69257;BME280;56376;53.356;-1.748;2023-08-07T02:50:49;99817.13;;;12.39;100.00
69257;BME280;56376;53.356;-1.748;2023-08-07T02:53:16;99815.50;;;12.36;100.00
69257;BME280;56376;53.356;-1.748;2023-08-07T02:55:43;99819.75;;;12.39;100.00
69257;BME280;56376;53.356;-1.748;2023-08-07T02:58:09;99808.44;;;12.38;100.00
69257;BME280;56376;53.356;-1.748;2023-08-07T03:00:35;99806.66;;;12.39;100.00
69257;BME280;56376;53.356;-1.748;2023-08-07T03:03:00;99809.41;;;12.36;100.00
69257;BME280;56376;53.356;-1.748;2023-08-07T03:05:26;99809.28;;;12.39;100.00
69257;BME280;56376;53.356;-1.748;2023-08-07T03:07:51;99813.66;;;12.38;100.00
69257;BME280;56376;53.356;-1.748;2023-08-07T03:10:16;99809.41;;;12.36;100.00
69257;BME280;56376;53.356;-1.748;2023-08-07T03:12:42;99814.56;;;12.37;100.00
69257;BME280;56376;53.356;-1.748;2023-08-07T03:15:07;99813.72;;;12.37;100.00
69257;BME280;56376;53.356;-1.748;2023-08-07T03:17:33;99814.66;;;12.36;100.00
69257;BME280;56376;53.356;-1.748;2023-08-07T03:19:58;99805.84;;;12.37;100.00
69257;BME280;56376;53.356;-1.748;2023-08-07T03:22:24;99812.06;;;12.34;100.00
69257;BME280;56376;53.356;-1.748;2023-08-07T03:24:49;99804.09;;;12.37;100.00
69257;BME280;56376;53.356;-1.748;2023-08-07T03:27:15;99815.53;;;12.34;100.00
69257;BME280;56376;53.356;-1.748;2023-08-07T03:29:40;99814.03;;;12.29;100.00
69257;BME280;56376;53.356;-1.748;2023-08-07T03:32:06;99817.44;;;12.31;100.00
69257;BME280;56376;53.356;-1.748;2023-08-07T03:34:31;99818.25;;;12.33;100.00
69257;BME280;56376;53.356;-1.748;2023-08-07T03:36:57;99811.34;;;12.30;100.00
69257;BME280;56376;53.356;-1.748;2023-08-07T03:39:24;99808.91;;;12.26;100.00
69257;BME280;56376;53.356;-1.748;2023-08-07T03:41:50;99808.72;;;12.30;100.00
69257;BME280;56376;53.356;-1.748;2023-08-07T03:44:16;99809.59;;;12.31;100.00
69257;BME280;56376;53.356;-1.748;2023-08-07T03:46:41;99807.81;;;12.31;100.00
69257;BME280;56376;53.356;-1.748;2023-08-07T03:49:07;99802.56;;;12.31;100.00
69257;BME280;56376;53.356;-1.748;2023-08-07T03:51:32;99801.78;;;12.29;100.00
69257;BME280;56376;53.356;-1.748;2023-08-07T03:53:57;99806.03;;;12.32;100.00
69257;BME280;56376;53.356;-1.748;2023-08-07T03:56:23;99813.03;;;12.31;100.00
69257;BME280;56376;53.356;-1.748;2023-08-07T03:58:48;99809.63;;;12.29;100.00
69257;BME280;56376;53.356;-1.748;2023-08-07T04:01:15;99813.16;;;12.28;100.00
69257;BME280;56376;53.356;-1.748;2023-08-07T04:03:41;99803.53;;;12.29;100.00
69257;BME280;56376;53.356;-1.748;2023-08-07T04:06:06;99814.16;;;12.26;100.00
69257;BME280;56376;53.356;-1.748;2023-08-07T04:08:32;99805.38;;;12.27;100.00
69257;BME280;56376;53.356;-1.748;2023-08-07T04:10:58;99800.91;;;12.29;100.00
69257;BME280;56376;53.356;-1.748;2023-08-07T04:13:25;99815.00;;;12.26;100.00
69257;BME280;56376;53.356;-1.748;2023-08-07T04:15:50;99807.00;;;12.29;100.00
69257;BME280;56376;53.356;-1.748;2023-08-07T04:18:15;99808.91;;;12.26;100.00
69257;BME280;56376;53.356;-1.748;2023-08-07T04:20:41;99805.44;;;12.25;100.00
69257;BME280;56376;53.356;-1.748;2023-08-07T04:23:07;99813.34;;;12.24;100.00
69257;BME280;56376;53.356;-1.748;2023-08-07T04:25:32;99809.94;;;12.22;100.00
69257;BME280;56376;53.356;-1.748;2023-08-07T04:27:58;99813.47;;;12.21;100.00
69257;BME280;56376;53.356;-1.748;2023-08-07T04:30:23;99803.97;;;12.18;100.00
69257;BME280;56376;53.356;-1.748;2023-08-07T04:32:48;99809.19;;;12.18;100.00
69257;BME280;56376;53.356;-1.748;2023-08-07T04:35:14;99812.63;;;12.20;100.00
69257;BME280;56376;53.356;-1.748;2023-08-07T04:37:39;99811.78;;;12.20;100.00
69257;BME280;56376;53.356;-1.748;2023-08-07T04:40:05;99813.59;;;12.18;100.00
69257;BME280;56376;53.356;-1.748;2023-08-07T04:42:31;99808.47;;;12.15;100.00
69257;BME280;56376;53.356;-1.748;2023-08-07T04:44:57;99808.22;;;12.21;100.00
69257;BME280;56376;53.356;-1.748;2023-08-07T04:47:22;99803.63;;;12.27;100.00
69257;BME280;56376;53.356;-1.748;2023-08-07T04:49:48;99796.75;;;12.25;100.00
69257;BME280;56376;53.356;-1.748;2023-08-07T04:52:14;99804.59;;;12.25;100.00
69257;BME280;56376;53.356;-1.748;2023-08-07T04:54:39;99797.72;;;12.22;100.00
69257;BME280;56376;53.356;-1.748;2023-08-07T04:57:04;99794.13;;;12.25;100.00
69257;BME280;56376;53.356;-1.748;2023-08-07T04:59:30;99788.97;;;12.22;100.00
69257;BME280;56376;53.356;-1.748;2023-08-07T05:01:56;99786.13;;;12.28;100.00
69257;BME280;56376;53.356;-1.748;2023-08-07T05:04:22;99795.00;;;12.24;100.00
69257;BME280;56376;53.356;-1.748;2023-08-07T05:06:47;99793.31;;;12.23;100.00
69257;BME280;56376;53.356;-1.748;2023-08-07T05:09:13;99796.91;;;12.20;100.00
69257;BME280;56376;53.356;-1.748;2023-08-07T05:11:39;99799.44;;;12.22;100.00
69257;BME280;56376;53.356;-1.748;2023-08-07T05:14:04;99792.41;;;12.24;100.00
69257;BME280;56376;53.356;-1.748;2023-08-07T05:16:30;99795.81;;;12.26;100.00
69257;BME280;56376;53.356;-1.748;2023-08-07T05:18:55;99787.09;;;12.25;100.00
69257;BME280;56376;53.356;-1.748;2023-08-07T05:21:20;99795.75;;;12.27;100.00
69257;BME280;56376;53.356;-1.748;2023-08-07T05:23:46;99801.06;;;12.26;100.00
69257;BME280;56376;53.356;-1.748;2023-08-07T05:26:12;99808.66;;;12.32;100.00
69257;BME280;56376;53.356;-1.748;2023-08-07T05:28:38;99807.63;;;12.36;100.00
69257;BME280;56376;53.356;-1.748;2023-08-07T05:31:03;99808.56;;;12.35;100.00
69257;BME280;56376;53.356;-1.748;2023-08-07T05:33:29;99799.59;;;12.41;100.00
69257;BME280;56376;53.356;-1.748;2023-08-07T05:35:54;99803.06;;;12.41;100.00
69257;BME280;56376;53.356;-1.748;2023-08-07T05:38:20;99800.44;;;12.41;100.00
69257;BME280;56376;53.356;-1.748;2023-08-07T05:40:46;99802.09;;;12.44;100.00
69257;BME280;56376;53.356;-1.748;2023-08-07T05:43:11;99805.47;;;12.47;100.00
69257;BME280;56376;53.356;-1.748;2023-08-07T05:45:37;99801.72;;;12.53;100.00
69257;BME280;56376;53.356;-1.748;2023-08-07T05:48:03;99806.06;;;12.54;100.00
69257;BME280;56376;53.356;-1.748;2023-08-07T05:50:28;99803.31;;;12.57;100.00
69257;BME280;56376;53.356;-1.748;2023-08-07T05:52:54;99802.16;;;12.64;100.00
69257;BME280;56376;53.356;-1.748;2023-08-07T05:55:19;99801.25;;;12.65;100.00
69257;BME280;56376;53.356;-1.748;2023-08-07T05:57:45;99805.25;;;12.74;100.00
69257;BME280;56376;53.356;-1.748;2023-08-07T06:00:10;99806.09;;;12.74;100.00
69257;BME280;56376;53.356;-1.748;2023-08-07T06:02:42;99799.03;;;12.76;100.00
69257;BME280;56376;53.356;-1.748;2023-08-07T06:05:08;99803.25;;;12.81;100.00
69257;BME280;56376;53.356;-1.748;2023-08-07T06:07:34;99808.34;;;12.84;100.00
69257;BME280;56376;53.356;-1.748;2023-08-07T06:10:00;99804.81;;;12.85;100.00
69257;BME280;56376;53.356;-1.748;2023-08-07T06:12:25;99801.34;;;12.84;100.00
69257;BME280;56376;53.356;-1.748;2023-08-07T06:14:50;99802.25;;;12.83;100.00
69257;BME280;56376;53.356;-1.748;2023-08-07T06:17:16;99811.69;;;12.87;100.00
69257;BME280;56376;53.356;-1.748;2023-08-07T06:19:41;99809.72;;;12.92;100.00
69257;BME280;56376;53.356;-1.748;2023-08-07T06:22:07;99811.69;;;12.87;100.00
69257;BME280;56376;53.356;-1.748;2023-08-07T06:24:32;99820.66;;;12.82;100.00
69257;BME280;56376;53.356;-1.748;2023-08-07T06:26:58;99811.28;;;12.76;100.00
69257;BME280;56376;53.356;-1.748;2023-08-07T06:29:23;99816.53;;;12.76;100.00
69257;BME280;56376;53.356;-1.748;2023-08-07T06:31:48;99818.31;;;12.75;100.00
69257;BME280;56376;53.356;-1.748;2023-08-07T06:34:14;99814.75;;;12.76;100.00
69257;BME280;56376;53.356;-1.748;2023-08-07T06:36:39;99816.41;;;12.79;100.00
69257;BME280;56376;53.356;-1.748;2023-08-07T06:39:05;99812.09;;;12.78;100.00
69257;BME280;56376;53.356;-1.748;2023-08-07T06:41:30;99818.97;;;12.81;100.00
69257;BME280;56376;53.356;-1.748;2023-08-07T06:43:56;99812.88;;;12.80;100.00
69257;BME280;56376;53.356;-1.748;2023-08-07T06:46:21;99817.16;;;12.83;100.00
69257;BME280;56376;53.356;-1.748;2023-08-07T06:48:51;99821.50;;;12.82;100.00
69257;BME280;56376;53.356;-1.748;2023-08-07T06:51:17;99816.09;;;12.87;100.00
69257;BME280;56376;53.356;-1.748;2023-08-07T06:53:42;99811.75;;;12.86;100.00
69257;BME280;56376;53.356;-1.748;2023-08-07T06:56:07;99824.78;;;12.87;100.00
69257;BME280;56376;53.356;-1.748;2023-08-07T06:58:33;99811.50;;;12.92;100.00
69257;BME280;56376;53.356;-1.748;2023-08-07T07:00:58;99810.53;;;12.94;100.00
69257;BME280;56376;53.356;-1.748;2023-08-07T07:03:23;99818.34;;;12.96;100.00
69257;BME280;56376;53.356;-1.748;2023-08-07T07:05:49;99812.97;;;12.99;100.00
69257;BME280;56376;53.356;-1.748;2023-08-07T07:08:15;99821.47;;;13.04;100.00
69257;BME280;56376;53.356;-1.748;2023-08-07T07:10:41;99820.31;;;13.11;100.00
69257;BME280;56376;53.356;-1.748;2023-08-07T07:13:06;99820.78;;;13.21;100.00
69257;BME280;56376;53.356;-1.748;2023-08-07T07:15:33;99815.03;;;13.33;100.00
69257;BME280;56376;53.356;-1.748;2023-08-07T07:17:59;99821.59;;;13.44;100.00
69257;BME280;56376;53.356;-1.748;2023-08-07T07:20:25;99821.06;;;13.56;100.00
69257;BME280;56376;53.356;-1.748;2023-08-07T07:22:52;99817.88;;;13.68;100.00
69257;BME280;56376;53.356;-1.748;2023-08-07T07:25:17;99818.84;;;13.86;100.00
69257;BME280;56376;53.356;-1.748;2023-08-07T07:27:42;99814.53;;;14.04;100.00
69257;BME280;56376;53.356;-1.748;2023-08-07T07:30:08;99820.34;;;14.11;100.00
69257;BME280;56376;53.356;-1.748;2023-08-07T07:32:34;99815.97;;;14.11;100.00
69257;BME280;56376;53.356;-1.748;2023-08-07T07:34:59;99816.06;;;14.08;100.00
69257;BME280;56376;53.356;-1.748;2023-08-07T07:37:27;99811.56;;;14.12;100.00
69257;BME280;56376;53.356;-1.748;2023-08-07T07:39:52;99821.75;;;14.18;100.00
69257;BME280;56376;53.356;-1.748;2023-08-07T07:42:18;99813.97;;;14.16;100.00
69257;BME280;56376;53.356;-1.748;2023-08-07T07:44:43;99812.97;;;14.19;100.00
69257;BME280;56376;53.356;-1.748;2023-08-07T07:47:09;99807.19;;;14.11;100.00
69257;BME280;56376;53.356;-1.748;2023-08-07T07:49:34;99806.72;;;14.02;100.00
69257;BME280;56376;53.356;-1.748;2023-08-07T07:52:00;99804.94;;;14.03;100.00
69257;BME280;56376;53.356;-1.748;2023-08-07T07:54:25;99812.41;;;14.12;100.00
69257;BME280;56376;53.356;-1.748;2023-08-07T07:56:51;99806.16;;;14.15;100.00
69257;BME280;56376;53.356;-1.748;2023-08-07T07:59:16;99811.47;;;14.13;100.00
69257;BME280;56376;53.356;-1.748;2023-08-07T08:01:42;99808.97;;;14.10;100.00
69257;BME280;56376;53.356;-1.748;2023-08-07T08:04:07;99808.72;;;14.16;100.00
69257;BME280;56376;53.356;-1.748;2023-08-07T08:06:35;99797.59;;;14.28;100.00
69257;BME280;56376;53.356;-1.748;2023-08-07T08:09:00;99812.09;;;14.37;100.00
69257;BME280;56376;53.356;-1.748;2023-08-07T08:11:29;99824.19;;;14.41;100.00
69257;BME280;56376;53.356;-1.748;2023-08-07T08:13:54;99812.78;;;14.41;100.00
69257;BME280;56376;53.356;-1.748;2023-08-07T08:16:20;99814.56;;;14.40;100.00
69257;BME280;56376;53.356;-1.748;2023-08-07T08:18:45;99812.09;;;14.37;100.00
69257;BME280;56376;53.356;-1.748;2023-08-07T08:21:10;99815.78;;;14.33;100.00
69257;BME280;56376;53.356;-1.748;2023-08-07T08:23:36;99819.19;;;14.35;100.00
69257;BME280;56376;53.356;-1.748;2023-08-07T08:26:01;99819.88;;;14.39;100.00
69257;BME280;56376;53.356;-1.748;2023-08-07T08:28:27;99817.19;;;14.40;100.00
69257;BME280;56376;53.356;-1.748;2023-08-07T08:30:52;99817.16;;;14.42;100.00
69257;BME280;56376;53.356;-1.748;2023-08-07T08:33:17;99818.84;;;14.43;100.00
69257;BME280;56376;53.356;-1.748;2023-08-07T08:35:43;99816.34;;;14.40;100.00
69257;BME280;56376;53.356;-1.748;2023-08-07T08:38:08;99817.41;;;14.36;100.00
69257;BME280;56376;53.356;-1.748;2023-08-07T08:40:35;99810.38;;;14.36;100.00
69257;BME280;56376;53.356;-1.748;2023-08-07T08:43:04;99814.72;;;14.37;100.00
69257;BME280;56376;53.356;-1.748;2023-08-07T08:45:31;99817.94;;;14.44;100.00
69257;BME280;56376;53.356;-1.748;2023-08-07T08:48:03;99819.63;;;14.45;100.00
69257;BME280;56376;53.356;-1.748;2023-08-07T08:50:30;99821.25;;;14.47;100.00
69257;BME280;56376;53.356;-1.748;2023-08-07T08:52:56;99825.72;;;14.45;100.00
69257;BME280;56376;53.356;-1.748;2023-08-07T08:55:23;99831.28;;;14.39;100.00
69257;BME280;56376;53.356;-1.748;2023-08-07T08:57:48;99816.41;;;14.38;100.00
69257;BME280;56376;53.356;-1.748;2023-08-07T09:00:15;99819.88;;;14.39;100.00
69257;BME280;56376;53.356;-1.748;2023-08-07T09:02:49;99819.00;;;14.40;100.00
69257;BME280;56376;53.356;-1.748;2023-08-07T09:05:16;99812.59;;;14.45;100.00
69257;BME280;56376;53.356;-1.748;2023-08-07T09:07:42;99819.22;;;14.54;100.00
69257;BME280;56376;53.356;-1.748;2023-08-07T09:10:09;99805.56;;;14.65;100.00
69257;BME280;56376;53.356;-1.748;2023-08-07T09:12:39;99811.28;;;14.73;100.00
69257;BME280;56376;53.356;-1.748;2023-08-07T09:15:07;99808.06;;;14.85;100.00
69257;BME280;56376;53.356;-1.748;2023-08-07T09:17:37;99799.00;;;14.91;100.00
69257;BME280;56376;53.356;-1.748;2023-08-07T09:20:04;99800.16;;;15.03;100.00
69257;BME280;56376;53.356;-1.748;2023-08-07T09:22:30;99798.94;;;15.10;100.00
69257;BME280;56376;53.356;-1.748;2023-08-07T09:24:55;99797.16;;;15.10;100.00
69257;BME280;56376;53.356;-1.748;2023-08-07T09:27:21;99804.81;;;15.15;100.00
69257;BME280;56376;53.356;-1.748;2023-08-07T09:29:47;99794.97;;;15.19;100.00
69257;BME280;56376;53.356;-1.748;2023-08-07T09:32:13;99791.44;;;15.20;100.00
69257;BME280;56376;53.356;-1.748;2023-08-07T09:34:40;99780.81;;;15.21;100.00
69257;BME280;56376;53.356;-1.748;2023-08-07T09:37:10;99799.22;;;15.21;100.00
69257;BME280;56376;53.356;-1.748;2023-08-07T09:39:37;99801.97;;;15.20;100.00
69257;BME280;56376;53.356;-1.748;2023-08-07T09:42:03;99801.19;;;15.18;100.00
69257;BME280;56376;53.356;-1.748;2023-08-07T09:44:38;99802.25;;;15.13;100.00
69257;BME280;56376;53.356;-1.748;2023-08-07T09:47:17;99786.31;;;15.17;100.00
69257;BME280;56376;53.356;-1.748;2023-08-07T09:49:43;99783.53;;;15.20;100.00
69257;BME280;56376;53.356;-1.748;2023-08-07T09:52:10;99784.16;;;15.25;100.00
69257;BME280;56376;53.356;-1.748;2023-08-07T09:54:38;99778.41;;;15.34;100.00
69257;BME280;56376;53.356;-1.748;2023-08-07T09:57:04;99769.50;;;15.36;100.00
69257;BME280;56376;53.356;-1.748;2023-08-07T09:59:32;99772.97;;;15.37;100.00
69257;BME280;56376;53.356;-1.748;2023-08-07T10:01:59;99763.22;;;15.39;100.00
69257;BME280;56376;53.356;-1.748;2023-08-07T10:04:26;99772.06;;;15.38;100.00
69257;BME280;56376;53.356;-1.748;2023-08-07T10:06:52;99776.78;;;15.31;100.00
69257;BME280;56376;53.356;-1.748;2023-08-07T10:09:18;99778.63;;;15.29;100.00
69257;BME280;56376;53.356;-1.748;2023-08-07T10:11:43;99780.19;;;15.33;100.00
69257;BME280;56376;53.356;-1.748;2023-08-07T10:14:09;99779.78;;;15.41;100.00
69257;BME280;56376;53.356;-1.748;2023-08-07T10:16:35;99764.84;;;15.42;100.00
69257;BME280;56376;53.356;-1.748;2023-08-07T10:19:05;99764.84;;;15.42;100.00
69257;BME280;56376;53.356;-1.748;2023-08-07T10:21:32;99774.22;;;15.47;100.00
69257;BME280;56376;53.356;-1.748;2023-08-07T10:24:00;99777.59;;;15.49;100.00
69257;BME280;56376;53.356;-1.748;2023-08-07T10:26:28;99776.69;;;15.50;100.00
69257;BME280;56376;53.356;-1.748;2023-08-07T10:28:55;99770.69;;;15.47;100.00
69257;BME280;56376;53.356;-1.748;2023-08-07T10:31:22;99767.16;;;15.48;100.00
69257;BME280;56376;53.356;-1.748;2023-08-07T10:33:48;99764.34;;;15.51;100.00
69257;BME280;56376;53.356;-1.748;2023-08-07T10:36:16;99756.22;;;15.55;100.00
69257;BME280;56376;53.356;-1.748;2023-08-07T10:38:42;99764.50;;;15.65;100.00
69257;BME280;56376;53.356;-1.748;2023-08-07T10:41:09;99760.84;;;15.68;100.00
69257;BME280;56376;53.356;-1.748;2023-08-07T10:43:42;99753.72;;;15.70;100.00
69257;BME280;56376;53.356;-1.748;2023-08-07T10:46:19;99748.13;;;15.76;100.00
69257;BME280;56376;53.356;-1.748;2023-08-07T10:48:47;99750.09;;;15.88;100.00
69257;BME280;56376;53.356;-1.748;2023-08-07T10:51:28;99750.88;;;15.90;100.00
69257;BME280;56376;53.356;-1.748;2023-08-07T10:53:54;99758.91;;;15.87;100.00
69257;BME280;56376;53.356;-1.748;2023-08-07T10:56:35;99752.03;;;15.85;100.00
69257;BME280;56376;53.356;-1.748;2023-08-07T10:59:12;99761.13;;;15.79;100.00
69257;BME280;56376;53.356;-1.748;2023-08-07T11:04:11;99753.00;;;15.66;100.00
69257;BME280;56376;53.356;-1.748;2023-08-07T11:06:38;99756.41;;;15.68;100.00
69257;BME280;56376;53.356;-1.748;2023-08-07T11:09:06;99751.84;;;15.72;100.00
69257;BME280;56376;53.356;-1.748;2023-08-07T11:11:58;99753.00;;;15.66;100.00
69257;BME280;56376;53.356;-1.748;2023-08-07T11:14:24;99754.59;;;15.70;100.00
69257;BME280;56376;53.356;-1.748;2023-08-07T11:16:49;99754.19;;;15.61;100.00
69257;BME280;56376;53.356;-1.748;2023-08-07T11:19:16;99761.31;;;15.58;100.00
69257;BME280;56376;53.356;-1.748;2023-08-07T11:21:42;99764.34;;;15.51;100.00
69257;BME280;56376;53.356;-1.748;2023-08-07T11:24:08;99765.53;;;15.45;100.00
69257;BME280;56376;53.356;-1.748;2023-08-07T11:26:33;99767.69;;;15.37;100.00
69257;BME280;56376;53.356;-1.748;2023-08-07T11:28:59;99759.19;;;15.32;100.00
69257;BME280;56376;53.356;-1.748;2023-08-07T11:31:25;99758.44;;;15.30;100.00
69257;BME280;56376;53.356;-1.748;2023-08-07T11:33:57;99757.56;;;15.29;100.00
69257;BME280;56376;53.356;-1.748;2023-08-07T11:36:23;99759.69;;;15.23;100.00
69257;BME280;56376;53.356;-1.748;2023-08-07T11:38:49;99759.69;;;15.23;100.00
69257;BME280;56376;53.356;-1.748;2023-08-07T11:41:16;99765.97;;;15.20;100.00
69257;BME280;56376;53.356;-1.748;2023-08-07T11:43:42;99765.97;;;15.20;100.00
69257;BME280;56376;53.356;-1.748;2023-08-07T11:46:10;99765.19;;;15.18;100.00
69257;BME280;56376;53.356;-1.748;2023-08-07T11:48:37;99761.72;;;15.18;100.00
69257;BME280;56376;53.356;-1.748;2023-08-07T11:51:04;99762.56;;;15.18;100.00
69257;BME280;56376;53.356;-1.748;2023-08-07T11:53:32;99755.75;;;15.14;100.00
69257;BME280;56376;53.356;-1.748;2023-08-07T11:56:01;99751.19;;;15.18;100.00
69257;BME280;56376;53.356;-1.748;2023-08-07T11:58:28;99749.25;;;15.21;100.00
69257;BME280;56376;53.356;-1.748;2023-08-07T12:00:58;99749.78;;;15.28;100.00
69257;BME280;56376;53.356;-1.748;2023-08-07T12:03:28;99751.16;;;15.35;100.00
69257;BME280;56376;53.356;-1.748;2023-08-07T12:05:55;99737.47;;;15.28;100.00
69257;BME280;56376;53.356;-1.748;2023-08-07T12:08:21;99743.75;;;15.26;100.00
69257;BME280;56376;53.356;-1.748;2023-08-07T12:10:56;99734.84;;;15.28;100.00
69257;BME280;56376;53.356;-1.748;2023-08-07T12:13:25;99727.72;;;15.30;100.00
69257;BME280;56376;53.356;-1.748;2023-08-07T12:15:53;99737.66;;;15.41;100.00
69257;BME280;56376;53.356;-1.748;2023-08-07T12:18:20;99741.69;;;15.48;100.00
69257;BME280;56376;53.356;-1.748;2023-08-07T12:20:46;99742.03;;;15.58;100.00
69257;BME280;56376;53.356;-1.748;2023-08-07T12:23:15;99736.84;;;15.56;100.00
69257;BME280;56376;53.356;-1.748;2023-08-07T12:25:42;99739.59;;;15.55;100.00
69257;BME280;56376;53.356;-1.748;2023-08-07T12:28:07;99740.50;;;15.54;100.00
69257;BME280;56376;53.356;-1.748;2023-08-07T12:30:36;99733.44;;;15.54;100.00
69257;BME280;56376;53.356;-1.748;2023-08-07T12:33:02;99734.03;;;15.59;100.00
69257;BME280;56376;53.356;-1.748;2023-08-07T12:35:33;99731.16;;;15.64;100.00
69257;BME280;56376;53.356;-1.748;2023-08-07T12:37:58;99731.31;;;15.78;100.00
69257;BME280;56376;53.356;-1.748;2023-08-07T12:40:25;99742.19;;;15.88;100.00
69257;BME280;56376;53.356;-1.748;2023-08-07T12:42:50;99724.44;;;15.92;100.00
69257;BME280;56376;53.356;-1.748;2023-08-07T12:45:16;99732.50;;;15.89;100.00
69257;BME280;56376;53.356;-1.748;2023-08-07T12:47:42;99744.25;;;15.83;100.00